sensor_id;sensor_type;location;lat;lon;timestamp;pressure;altitude;pressure_sealevel;temperature;humidity
73242;BME280;65659;49.234;-2.094;2024-02-04T00:02:02;102118.28;;;12.96;56.52
73242;BME280;65659;49.234;-2.094;2024-02-04T00:04:26;102109.08;;;13.03;56.40
73242;BME280;65659;49.234;-2.094;2024-02-04T00:06:52;102112.76;;;12.95;56.54
73242;BME280;65659;49.234;-2.094;2024-02-04T00:09:17;102105.74;;;12.93;56.57
73242;BME280;65659;49.234;-2.094;2024-02-04T00:11:43;102104.70;;;12.80;56.76
73242;BME280;65659;49.234;-2.094;2024-02-04T00:14:08;102099.82;;;13.28;56.70
73242;BME280;65659;49.234;-2.094;2024-02-04T00:16:34;102086.21;;;12.67;56.98
73242;BME280;65659;49.234;-2.094;2024-02-04T00:18:59;102080.05;;;12.62;57.06
73242;BME280;65659;49.234;-2.094;2024-02-04T00:21:25;102077.55;;;12.52;57.28
73242;BME280;65659;49.234;-2.094;2024-02-04T00:23:50;102081.37;;;12.46;57.44
73242;BME280;65659;49.234;-2.094;2024-02-04T00:26:16;102073.80;;;12.35;57.61
73242;BME280;65659;49.234;-2.094;2024-02-04T00:28:41;102076.27;;;12.37;57.52
73242;BME280;65659;49.234;-2.094;2024-02-04T00:31:08;102082.66;;;12.52;57.62
73242;BME280;65659;49.234;-2.094;2024-02-04T00:33:32;102074.40;;;12.21;57.67
73242;BME280;65659;49.234;-2.094;2024-02-04T00:35:58;102077.40;;;12.38;57.80
73242;BME280;65659;49.234;-2.094;2024-02-04T00:38:23;102076.04;;;12.53;57.49
73242;BME280;65659;49.234;-2.094;2024-02-04T00:40:49;102073.05;;;12.83;57.42
73242;BME280;65659;49.234;-2.094;2024-02-04T00:43:14;102070.32;;;12.70;57.63
73242;BME280;65659;49.234;-2.094;2024-02-04T00:45:39;102073.09;;;12.65;57.86
73242;BME280;65659;49.234;-2.094;2024-02-04T00:48:06;102068.33;;;12.54;58.01
73242;BME280;65659;49.234;-2.094;2024-02-04T00:50:31;102066.71;;;12.64;57.82
73242;BME280;65659;49.234;-2.094;2024-02-04T00:52:56;102070.70;;;12.61;57.83
73242;BME280;65659;49.234;-2.094;2024-02-04T00:55:22;102073.25;;;12.36;57.76
73242;BME280;65659;49.234;-2.094;2024-02-04T00:57:48;102073.23;;;12.47;57.82
73242;BME280;65659;49.234;-2.094;2024-02-04T01:00:14;102073.66;;;12.23;57.71
73242;BME280;65659;49.234;-2.094;2024-02-04T01:02:38;102071.60;;;12.00;57.65
73242;BME280;65659;49.234;-2.094;2024-02-04T01:05:05;102069.31;;;12.54;57.51
73242;BME280;65659;49.234;-2.094;2024-02-04T01:07:29;102063.04;;;12.09;57.84
73242;BME280;65659;49.234;-2.094;2024-02-04T01:09:55;102072.68;;;12.42;57.69
73242;BME280;65659;49.234;-2.094;2024-02-04T01:12:21;102078.82;;;12.46;57.65
73242;BME280;65659;49.234;-2.094;2024-02-04T01:14:46;102080.17;;;12.27;57.64
73242;BME280;65659;49.234;-2.094;2024-02-04T01:17:12;102075.83;;;12.33;57.56
73242;BME280;65659;49.234;-2.094;2024-02-04T01:19:37;102077.73;;;12.66;57.57
73242;BME280;65659;49.234;-2.094;2024-02-04T01:22:03;102075.44;;;12.48;57.38
73242;BME280;65659;49.234;-2.094;2024-02-04T01:24:28;102073.54;;;12.63;57.51
73242;BME280;65659;49.234;-2.094;2024-02-04T01:26:54;102079.59;;;12.17;57.49
73242;BME280;65659;49.234;-2.094;2024-02-04T01:29:19;102074.33;;;12.36;57.56
73242;BME280;65659;49.234;-2.094;2024-02-04T01:31:45;102076.52;;;12.53;57.65
73242;BME280;65659;49.234;-2.094;2024-02-04T01:34:11;102079.18;;;12.30;57.30
73242;BME280;65659;49.234;-2.094;2024-02-04T01:36:36;102078.15;;;12.44;57.49
73242;BME280;65659;49.234;-2.094;2024-02-04T01:39:02;102084.03;;;12.41;57.62
73242;BME280;65659;49.234;-2.094;2024-02-04T01:41:27;102082.23;;;12.71;57.56
73242;BME280;65659;49.234;-2.094;2024-02-04T01:43:53;102083.77;;;12.45;57.65
73242;BME280;65659;49.234;-2.094;2024-02-04T01:46:18;102077.57;;;12.76;57.60
73242;BME280;65659;49.234;-2.094;2024-02-04T01:48:44;102075.52;;;12.32;58.02
73242;BME280;65659;49.234;-2.094;2024-02-04T01:51:09;102071.35;;;12.08;58.07
73242;BME280;65659;49.234;-2.094;2024-02-04T01:53:36;102068.89;;;12.28;58.12
73242;BME280;65659;49.234;-2.094;2024-02-04T01:56:00;102070.32;;;12.55;58.15
73242;BME280;65659;49.234;-2.094;2024-02-04T01:58:26;102064.52;;;12.32;58.15
73242;BME280;65659;49.234;-2.094;2024-02-04T02:00:51;102062.43;;;12.54;58.15
73242;BME280;65659;49.234;-2.094;2024-02-04T02:03:17;102065.60;;;12.14;58.10
73242;BME280;65659;49.234;-2.094;2024-02-04T02:05:42;102063.20;;;12.53;57.87
73242;BME280;65659;49.234;-2.094;2024-02-04T02:08:08;102063.80;;;12.67;58.09
73242;BME280;65659;49.234;-2.094;2024-02-04T02:10:33;102057.92;;;12.26;58.45
73242;BME280;65659;49.234;-2.094;2024-02-04T02:13:04;102063.91;;;12.57;58.28
73242;BME280;65659;49.234;-2.094;2024-02-04T02:15:28;102066.87;;;12.40;58.12
73242;BME280;65659;49.234;-2.094;2024-02-04T02:17:56;102065.13;;;12.45;58.09
73242;BME280;65659;49.234;-2.094;2024-02-04T02:20:21;102062.80;;;12.40;58.12
73242;BME280;65659;49.234;-2.094;2024-02-04T02:22:47;102066.89;;;12.66;58.06
73242;BME280;65659;49.234;-2.094;2024-02-04T02:25:08;102069.84;;;12.79;57.92
73242;BME280;65659;49.234;-2.094;2024-02-04T02:27:32;102067.15;;;12.77;57.94
73242;BME280;65659;49.234;-2.094;2024-02-04T02:29:58;102068.61;;;12.49;58.03
73242;BME280;65659;49.234;-2.094;2024-02-04T02:32:23;102061.89;;;12.25;57.96
73242;BME280;65659;49.234;-2.094;2024-02-04T02:34:48;102060.34;;;12.47;58.09
73242;BME280;65659;49.234;-2.094;2024-02-04T02:37:24;102060.56;;;12.42;58.18
73242;BME280;65659;49.234;-2.094;2024-02-04T02:39:45;102063.60;;;12.46;58.17
73242;BME280;65659;49.234;-2.094;2024-02-04T02:42:05;102062.61;;;12.71;58.16
73242;BME280;65659;49.234;-2.094;2024-02-04T02:44:30;102055.40;;;12.48;58.08
73242;BME280;65659;49.234;-2.094;2024-02-04T02:46:56;102044.86;;;12.32;58.40
73242;BME280;65659;49.234;-2.094;2024-02-04T02:49:21;102033.19;;;12.29;58.46
73242;BME280;65659;49.234;-2.094;2024-02-04T02:51:46;102022.39;;;12.12;58.21
73242;BME280;65659;49.234;-2.094;2024-02-04T02:54:12;102027.34;;;12.33;58.23
73242;BME280;65659;49.234;-2.094;2024-02-04T02:56:37;102032.79;;;12.40;58.15
73242;BME280;65659;49.234;-2.094;2024-02-04T02:59:02;102032.66;;;12.38;58.11
73242;BME280;65659;49.234;-2.094;2024-02-04T03:01:28;102030.12;;;12.18;57.99
73242;BME280;65659;49.234;-2.094;2024-02-04T03:03:54;102031.21;;;12.55;58.16
73242;BME280;65659;49.234;-2.094;2024-02-04T03:06:19;102043.36;;;12.25;58.24
73242;BME280;65659;49.234;-2.094;2024-02-04T03:08:45;102036.13;;;12.46;58.25
73242;BME280;65659;49.234;-2.094;2024-02-04T03:11:10;102037.21;;;12.08;58.09
73242;BME280;65659;49.234;-2.094;2024-02-04T03:13:38;102035.56;;;12.59;58.08
73242;BME280;65659;49.234;-2.094;2024-02-04T03:16:01;102028.99;;;12.36;57.97
73242;BME280;65659;49.234;-2.094;2024-02-04T03:18:27;102022.30;;;12.10;58.02
73242;BME280;65659;49.234;-2.094;2024-02-04T03:20:52;102024.92;;;12.23;58.24
73242;BME280;65659;49.234;-2.094;2024-02-04T03:23:17;102024.06;;;12.27;58.17
73242;BME280;65659;49.234;-2.094;2024-02-04T03:25:42;102022.28;;;12.31;58.02
73242;BME280;65659;49.234;-2.094;2024-02-04T03:28:09;102017.68;;;12.26;58.19
73242;BME280;65659;49.234;-2.094;2024-02-04T03:30:33;102027.66;;;12.20;58.32
73242;BME280;65659;49.234;-2.094;2024-02-04T03:32:59;102027.55;;;12.30;58.13
73242;BME280;65659;49.234;-2.094;2024-02-04T03:35:24;102028.12;;;12.55;58.19
73242;BME280;65659;49.234;-2.094;2024-02-04T03:37:50;102022.26;;;12.28;58.13
73242;BME280;65659;49.234;-2.094;2024-02-04T03:40:16;102021.25;;;12.50;58.23
73242;BME280;65659;49.234;-2.094;2024-02-04T03:42:41;102017.28;;;12.56;58.19
73242;BME280;65659;49.234;-2.094;2024-02-04T03:45:08;102013.78;;;12.07;58.23
73242;BME280;65659;49.234;-2.094;2024-02-04T03:47:33;102011.67;;;12.64;58.04
73242;BME280;65659;49.234;-2.094;2024-02-04T03:49:58;102012.87;;;12.10;58.10
73242;BME280;65659;49.234;-2.094;2024-02-04T03:52:23;102016.30;;;12.51;57.83
73242;BME280;65659;49.234;-2.094;2024-02-04T03:54:49;102009.72;;;12.35;58.14
73242;BME280;65659;49.234;-2.094;2024-02-04T03:57:15;102011.50;;;12.07;58.15
73242;BME280;65659;49.234;-2.094;2024-02-04T03:59:43;102006.85;;;12.16;57.91
73242;BME280;65659;49.234;-2.094;2024-02-04T04:02:06;102010.23;;;12.42;57.94
73242;BME280;65659;49.234;-2.094;2024-02-04T04:04:31;102002.27;;;12.32;58.02
73242;BME280;65659;49.234;-2.094;2024-02-04T04:06:57;102005.44;;;12.35;57.95
73242;BME280;65659;49.234;-2.094;2024-02-04T04:09:22;102003.39;;;12.10;57.93
73242;BME280;65659;49.234;-2.094;2024-02-04T04:11:47;102008.83;;;12.37;57.84
73242;BME280;65659;49.234;-2.094;2024-02-04T04:14:13;102002.21;;;12.38;57.73
73242;BME280;65659;49.234;-2.094;2024-02-04T04:16:38;102000.97;;;12.38;57.67
73242;BME280;65659;49.234;-2.094;2024-02-04T04:19:04;102009.19;;;12.39;57.69
73242;BME280;65659;49.234;-2.094;2024-02-04T04:21:29;102007.54;;;12.41;57.59
73242;BME280;65659;49.234;-2.094;2024-02-04T04:23:55;102014.37;;;12.35;57.75
73242;BME280;65659;49.234;-2.094;2024-02-04T04:26:21;102017.95;;;12.12;57.68
73242;BME280;65659;49.234;-2.094;2024-02-04T04:28:45;102023.13;;;12.22;57.63
73242;BME280;65659;49.234;-2.094;2024-02-04T04:31:11;102022.76;;;12.17;57.61
73242;BME280;65659;49.234;-2.094;2024-02-04T04:33:37;102023.18;;;12.28;57.41
73242;BME280;65659;49.234;-2.094;2024-02-04T04:36:03;102022.50;;;12.30;57.37
73242;BME280;65659;49.234;-2.094;2024-02-04T04:38:28;102020.15;;;12.60;57.20
73242;BME280;65659;49.234;-2.094;2024-02-04T04:40:53;102017.52;;;12.67;57.06
73242;BME280;65659;49.234;-2.094;2024-02-04T04:43:19;102015.65;;;12.75;57.33
73242;BME280;65659;49.234;-2.094;2024-02-04T04:45:44;102011.85;;;12.80;57.29
73242;BME280;65659;49.234;-2.094;2024-02-04T04:48:09;102012.84;;;12.26;57.38
73242;BME280;65659;49.234;-2.094;2024-02-04T04:50:41;102012.19;;;12.35;57.15
73242;BME280;65659;49.234;-2.094;2024-02-04T04:53:00;102003.98;;;12.53;57.26
73242;BME280;65659;49.234;-2.094;2024-02-04T04:55:26;102000.32;;;12.47;57.41
73242;BME280;65659;49.234;-2.094;2024-02-04T04:57:51;102005.98;;;12.49;57.40
73242;BME280;65659;49.234;-2.094;2024-02-04T05:00:18;102004.08;;;12.68;57.52
73242;BME280;65659;49.234;-2.094;2024-02-04T05:02:42;102006.03;;;12.53;57.36
73242;BME280;65659;49.234;-2.094;2024-02-04T05:05:09;102000.12;;;12.40;57.54
73242;BME280;65659;49.234;-2.094;2024-02-04T05:07:33;102006.42;;;12.49;57.43
73242;BME280;65659;49.234;-2.094;2024-02-04T05:09:58;102010.69;;;12.53;57.23
73242;BME280;65659;49.234;-2.094;2024-02-04T05:12:24;102011.45;;;12.25;57.36
73242;BME280;65659;49.234;-2.094;2024-02-04T05:14:49;102010.63;;;12.26;57.32
73242;BME280;65659;49.234;-2.094;2024-02-04T05:17:15;102011.07;;;12.49;57.33
73242;BME280;65659;49.234;-2.094;2024-02-04T05:19:41;102009.33;;;12.50;57.16
73242;BME280;65659;49.234;-2.094;2024-02-04T05:22:07;102006.60;;;12.22;57.24
73242;BME280;65659;49.234;-2.094;2024-02-04T05:24:32;101998.38;;;12.13;57.31
73242;BME280;65659;49.234;-2.094;2024-02-04T05:26:57;101999.32;;;12.35;57.37
73242;BME280;65659;49.234;-2.094;2024-02-04T05:29:22;101999.03;;;12.36;57.28
73242;BME280;65659;49.234;-2.094;2024-02-04T05:31:48;101999.44;;;12.49;57.40
73242;BME280;65659;49.234;-2.094;2024-02-04T05:34:14;102002.66;;;11.99;57.36
73242;BME280;65659;49.234;-2.094;2024-02-04T05:36:40;102001.23;;;12.53;57.29
73242;BME280;65659;49.234;-2.094;2024-02-04T05:39:11;101996.85;;;12.53;57.26
73242;BME280;65659;49.234;-2.094;2024-02-04T05:41:31;102003.21;;;12.46;57.39
73242;BME280;65659;49.234;-2.094;2024-02-04T05:43:57;102008.03;;;12.51;57.31
73242;BME280;65659;49.234;-2.094;2024-02-04T05:46:23;102014.60;;;12.49;57.31
73242;BME280;65659;49.234;-2.094;2024-02-04T05:48:48;102017.52;;;12.16;57.54
73242;BME280;65659;49.234;-2.094;2024-02-04T05:51:13;102016.66;;;12.11;57.64
73242;BME280;65659;49.234;-2.094;2024-02-04T05:53:38;102008.74;;;12.12;57.65
73242;BME280;65659;49.234;-2.094;2024-02-04T05:56:05;102014.23;;;12.25;57.39
73242;BME280;65659;49.234;-2.094;2024-02-04T05:58:29;102015.16;;;12.23;57.78
73242;BME280;65659;49.234;-2.094;2024-02-04T06:00:55;102010.79;;;12.12;57.60
73242;BME280;65659;49.234;-2.094;2024-02-04T06:03:21;102012.95;;;12.14;57.63
73242;BME280;65659;49.234;-2.094;2024-02-04T06:05:47;102009.47;;;12.43;57.57
73242;BME280;65659;49.234;-2.094;2024-02-04T06:08:12;102006.16;;;12.39;57.57
73242;BME280;65659;49.234;-2.094;2024-02-04T06:10:37;102009.49;;;12.41;57.52
73242;BME280;65659;49.234;-2.094;2024-02-04T06:13:03;102005.76;;;12.16;57.52
73242;BME280;65659;49.234;-2.094;2024-02-04T06:15:28;102006.35;;;12.46;57.34
73242;BME280;65659;49.234;-2.094;2024-02-04T06:17:54;102005.13;;;12.34;57.62
73242;BME280;65659;49.234;-2.094;2024-02-04T06:20:20;102009.81;;;12.27;57.73
73242;BME280;65659;49.234;-2.094;2024-02-04T06:22:45;102005.37;;;12.13;57.55
73242;BME280;65659;49.234;-2.094;2024-02-04T06:25:11;102007.89;;;11.96;57.85
73242;BME280;65659;49.234;-2.094;2024-02-04T06:27:36;102004.45;;;12.42;57.52
73242;BME280;65659;49.234;-2.094;2024-02-04T06:30:02;102003.35;;;12.34;57.67
73242;BME280;65659;49.234;-2.094;2024-02-04T06:32:27;102001.39;;;12.44;57.54
73242;BME280;65659;49.234;-2.094;2024-02-04T06:34:53;101998.31;;;12.19;57.49
73242;BME280;65659;49.234;-2.094;2024-02-04T06:37:18;101998.66;;;12.42;57.53
73242;BME280;65659;49.234;-2.094;2024-02-04T06:39:44;101996.68;;;12.44;57.50
73242;BME280;65659;49.234;-2.094;2024-02-04T06:42:09;102001.52;;;12.52;57.30
73242;BME280;65659;49.234;-2.094;2024-02-04T06:44:35;102001.10;;;12.41;57.46
73242;BME280;65659;49.234;-2.094;2024-02-04T06:47:00;102003.27;;;12.22;57.31
73242;BME280;65659;49.234;-2.094;2024-02-04T06:49:26;101995.28;;;12.19;57.35
73242;BME280;65659;49.234;-2.094;2024-02-04T06:51:51;101998.79;;;12.44;57.34
73242;BME280;65659;49.234;-2.094;2024-02-04T06:54:17;101998.69;;;12.24;57.31
73242;BME280;65659;49.234;-2.094;2024-02-04T06:56:42;101995.98;;;12.48;57.20
73242;BME280;65659;49.234;-2.094;2024-02-04T06:59:08;101994.04;;;12.48;57.21
73242;BME280;65659;49.234;-2.094;2024-02-04T07:01:33;101991.90;;;12.21;57.19
73242;BME280;65659;49.234;-2.094;2024-02-04T07:03:59;101993.12;;;12.18;57.23
73242;BME280;65659;49.234;-2.094;2024-02-04T07:06:25;101990.28;;;12.45;57.19
73242;BME280;65659;49.234;-2.094;2024-02-04T07:08:51;101983.09;;;11.86;57.38
73242;BME280;65659;49.234;-2.094;2024-02-04T07:11:17;101986.44;;;12.16;57.28
73242;BME280;65659;49.234;-2.094;2024-02-04T07:13:42;101979.90;;;12.24;57.06
73242;BME280;65659;49.234;-2.094;2024-02-04T07:16:08;101985.15;;;12.62;56.74
73242;BME280;65659;49.234;-2.094;2024-02-04T07:18:32;101983.78;;;12.30;57.02
73242;BME280;65659;49.234;-2.094;2024-02-04T07:20:58;101978.43;;;12.24;57.04
73242;BME280;65659;49.234;-2.094;2024-02-04T07:23:23;101982.46;;;12.27;56.98
73242;BME280;65659;49.234;-2.094;2024-02-04T07:25:49;101983.09;;;12.57;56.89
73242;BME280;65659;49.234;-2.094;2024-02-04T07:28:14;101988.08;;;12.32;56.96
73242;BME280;65659;49.234;-2.094;2024-02-04T07:30:40;101992.82;;;12.58;56.82
73242;BME280;65659;49.234;-2.094;2024-02-04T07:33:06;101988.25;;;12.08;56.86
73242;BME280;65659;49.234;-2.094;2024-02-04T07:35:32;101984.57;;;12.41;56.70
73242;BME280;65659;49.234;-2.094;2024-02-04T07:37:57;101985.35;;;12.39;56.67
73242;BME280;65659;49.234;-2.094;2024-02-04T07:40:23;101983.16;;;12.41;56.59
73242;BME280;65659;49.234;-2.094;2024-02-04T07:42:48;101983.53;;;12.09;56.71
73242;BME280;65659;49.234;-2.094;2024-02-04T07:45:14;101988.18;;;12.31;56.26
73242;BME280;65659;49.234;-2.094;2024-02-04T07:47:39;101991.93;;;12.46;56.38
73242;BME280;65659;49.234;-2.094;2024-02-04T07:50:05;101994.10;;;12.41;56.49
73242;BME280;65659;49.234;-2.094;2024-02-04T07:52:30;101994.19;;;12.62;56.48
73242;BME280;65659;49.234;-2.094;2024-02-04T07:54:55;101998.13;;;12.63;56.35
73242;BME280;65659;49.234;-2.094;2024-02-04T07:57:20;102000.66;;;12.36;56.41
73242;BME280;65659;49.234;-2.094;2024-02-04T07:59:45;101999.49;;;12.20;56.21
73242;BME280;65659;49.234;-2.094;2024-02-04T08:02:11;101997.55;;;12.84;55.89
73242;BME280;65659;49.234;-2.094;2024-02-04T08:04:40;102005.21;;;12.54;56.02
73242;BME280;65659;49.234;-2.094;2024-02-04T08:07:03;101997.97;;;12.33;55.92
73242;BME280;65659;49.234;-2.094;2024-02-04T08:09:28;101992.17;;;12.37;55.84
73242;BME280;65659;49.234;-2.094;2024-02-04T08:11:54;101994.18;;;12.74;55.54
73242;BME280;65659;49.234;-2.094;2024-02-04T08:14:19;101988.88;;;12.53;55.61
73242;BME280;65659;49.234;-2.094;2024-02-04T08:16:45;101995.09;;;12.43;55.87
73242;BME280;65659;49.234;-2.094;2024-02-04T08:19:11;101995.11;;;12.25;55.73
73242;BME280;65659;49.234;-2.094;2024-02-04T08:21:36;101993.43;;;12.57;55.53
73242;BME280;65659;49.234;-2.094;2024-02-04T08:24:01;101990.01;;;12.59;55.62
73242;BME280;65659;49.234;-2.094;2024-02-04T08:26:26;101988.66;;;12.54;55.70
73242;BME280;65659;49.234;-2.094;2024-02-04T08:28:52;101990.33;;;12.63;55.61
73242;BME280;65659;49.234;-2.094;2024-02-04T08:31:17;101990.85;;;12.69;55.49
73242;BME280;65659;49.234;-2.094;2024-02-04T08:33:43;101988.63;;;12.64;55.59
73242;BME280;65659;49.234;-2.094;2024-02-04T08:36:09;101986.10;;;12.67;55.62
73242;BME280;65659;49.234;-2.094;2024-02-04T08:38:34;101990.55;;;12.67;55.63
73242;BME280;65659;49.234;-2.094;2024-02-04T08:40:59;101986.54;;;12.67;55.66
73242;BME280;65659;49.234;-2.094;2024-02-04T08:43:25;101986.74;;;12.76;55.53
73242;BME280;65659;49.234;-2.094;2024-02-04T08:45:50;101986.46;;;12.77;55.49
73242;BME280;65659;49.234;-2.094;2024-02-04T08:48:15;101986.47;;;12.72;55.59
73242;BME280;65659;49.234;-2.094;2024-02-04T08:50:41;101990.34;;;12.70;55.64
73242;BME280;65659;49.234;-2.094;2024-02-04T08:53:07;101987.56;;;12.75;55.59
73242;BME280;65659;49.234;-2.094;2024-02-04T08:55:32;101995.67;;;12.77;55.52
73242;BME280;65659;49.234;-2.094;2024-02-04T08:57:58;101993.79;;;13.04;55.54
73242;BME280;65659;49.234;-2.094;2024-02-04T09:00:23;101995.05;;;12.51;55.67
73242;BME280;65659;49.234;-2.094;2024-02-04T09:02:49;101993.39;;;12.86;55.48
73242;BME280;65659;49.234;-2.094;2024-02-04T09:05:14;101999.90;;;12.89;55.37
73242;BME280;65659;49.234;-2.094;2024-02-04T09:07:40;101998.26;;;12.94;55.33
73242;BME280;65659;49.234;-2.094;2024-02-04T09:10:06;101997.79;;;13.21;55.28
73242;BME280;65659;49.234;-2.094;2024-02-04T09:12:31;101999.32;;;13.00;55.23
73242;BME280;65659;49.234;-2.094;2024-02-04T09:14:57;101992.65;;;13.00;55.28
73242;BME280;65659;49.234;-2.094;2024-02-04T09:17:22;101996.43;;;13.05;55.17
73242;BME280;65659;49.234;-2.094;2024-02-04T09:19:48;101998.74;;;13.03;55.23
73242;BME280;65659;49.234;-2.094;2024-02-04T09:22:13;101997.40;;;13.09;55.15
73242;BME280;65659;49.234;-2.094;2024-02-04T09:24:39;101997.01;;;13.22;54.97
73242;BME280;65659;49.234;-2.094;2024-02-04T09:27:05;102001.85;;;13.25;54.99
73242;BME280;65659;49.234;-2.094;2024-02-04T09:29:30;101998.87;;;13.12;54.75
73242;BME280;65659;49.234;-2.094;2024-02-04T09:31:56;101988.69;;;13.31;54.89
73242;BME280;65659;49.234;-2.094;2024-02-04T09:34:21;101996.82;;;13.32;54.79
73242;BME280;65659;49.234;-2.094;2024-02-04T09:36:46;101993.84;;;13.23;55.11
73242;BME280;65659;49.234;-2.094;2024-02-04T09:39:12;101997.50;;;13.05;55.03
73242;BME280;65659;49.234;-2.094;2024-02-04T09:41:38;101996.91;;;13.09;54.84
73242;BME280;65659;49.234;-2.094;2024-02-04T09:44:04;101996.00;;;13.35;54.87
73242;BME280;65659;49.234;-2.094;2024-02-04T09:46:28;101993.91;;;13.30;54.92
73242;BME280;65659;49.234;-2.094;2024-02-04T09:48:55;101996.38;;;13.36;54.86
73242;BME280;65659;49.234;-2.094;2024-02-04T09:51:20;101993.97;;;13.33;54.85
73242;BME280;65659;49.234;-2.094;2024-02-04T09:53:45;101995.77;;;13.01;54.92
73242;BME280;65659;49.234;-2.094;2024-02-04T09:56:12;101995.74;;;13.11;54.90
73242;BME280;65659;49.234;-2.094;2024-02-04T09:58:36;101995.51;;;13.54;54.68
73242;BME280;65659;49.234;-2.094;2024-02-04T10:01:03;101999.02;;;13.07;54.63
73242;BME280;65659;49.234;-2.094;2024-02-04T10:03:27;101993.89;;;13.40;54.56
73242;BME280;65659;49.234;-2.094;2024-02-04T10:05:53;102000.42;;;13.63;54.54
73242;BME280;65659;49.234;-2.094;2024-02-04T10:08:18;101999.38;;;13.55;54.37
73242;BME280;65659;49.234;-2.094;2024-02-04T10:10:44;101997.92;;;13.37;54.22
73242;BME280;65659;49.234;-2.094;2024-02-04T10:13:09;101993.30;;;13.96;53.99
73242;BME280;65659;49.234;-2.094;2024-02-04T10:15:34;101995.93;;;13.50;54.00
73242;BME280;65659;49.234;-2.094;2024-02-04T10:18:03;101987.71;;;13.41;53.80
73242;BME280;65659;49.234;-2.094;2024-02-04T10:20:25;101999.63;;;13.42;53.47
73242;BME280;65659;49.234;-2.094;2024-02-04T10:22:50;101999.86;;;13.62;53.10
73242;BME280;65659;49.234;-2.094;2024-02-04T10:25:15;101997.87;;;13.53;52.82
73242;BME280;65659;49.234;-2.094;2024-02-04T10:27:42;101997.42;;;13.85;52.56
73242;BME280;65659;49.234;-2.094;2024-02-04T10:30:07;101997.30;;;13.85;52.41
73242;BME280;65659;49.234;-2.094;2024-02-04T10:32:32;101996.93;;;13.91;52.34
73242;BME280;65659;49.234;-2.094;2024-02-04T10:34:58;101997.30;;;13.95;52.32
73242;BME280;65659;49.234;-2.094;2024-02-04T10:37:22;101995.75;;;14.00;52.14
73242;BME280;65659;49.234;-2.094;2024-02-04T10:39:48;101994.95;;;13.81;52.15
73242;BME280;65659;49.234;-2.094;2024-02-04T10:42:15;101993.92;;;13.99;51.92
73242;BME280;65659;49.234;-2.094;2024-02-04T10:44:40;101996.66;;;13.70;52.01
73242;BME280;65659;49.234;-2.094;2024-02-04T10:47:06;101995.85;;;14.07;51.68
73242;BME280;65659;49.234;-2.094;2024-02-04T10:49:30;101997.73;;;14.05;51.73
73242;BME280;65659;49.234;-2.094;2024-02-04T10:51:56;102001.49;;;13.81;51.99
73242;BME280;65659;49.234;-2.094;2024-02-04T10:54:22;101991.58;;;13.93;51.80
73242;BME280;65659;49.234;-2.094;2024-02-04T10:56:50;101996.04;;;13.80;51.97
73242;BME280;65659;49.234;-2.094;2024-02-04T10:59:15;101996.00;;;13.61;51.82
73242;BME280;65659;49.234;-2.094;2024-02-04T11:01:38;102001.81;;;14.04;51.67
73242;BME280;65659;49.234;-2.094;2024-02-04T11:04:04;101998.89;;;14.16;51.53
73242;BME280;65659;49.234;-2.094;2024-02-04T11:06:28;102001.63;;;14.00;51.46
73242;BME280;65659;49.234;-2.094;2024-02-04T11:08:55;101999.80;;;14.23;51.44
73242;BME280;65659;49.234;-2.094;2024-02-04T11:11:19;102000.26;;;14.01;51.42
73242;BME280;65659;49.234;-2.094;2024-02-04T11:13:47;101993.38;;;14.03;51.15
73242;BME280;65659;49.234;-2.094;2024-02-04T11:16:21;101996.44;;;14.14;51.10
73242;BME280;65659;49.234;-2.094;2024-02-04T11:18:56;101996.54;;;14.08;50.99
73242;BME280;65659;49.234;-2.094;2024-02-04T11:21:15;101998.11;;;13.77;51.31
73242;BME280;65659;49.234;-2.094;2024-02-04T11:23:37;101995.30;;;14.24;51.25
73242;BME280;65659;49.234;-2.094;2024-02-04T11:25:54;101996.39;;;13.73;51.25
73242;BME280;65659;49.234;-2.094;2024-02-04T11:28:20;102001.13;;;14.12;50.91
73242;BME280;65659;49.234;-2.094;2024-02-04T11:30:43;102002.67;;;14.16;51.10
73242;BME280;65659;49.234;-2.094;2024-02-04T11:33:11;102004.34;;;14.10;51.31
73242;BME280;65659;49.234;-2.094;2024-02-04T11:35:34;101996.17;;;13.85;51.22
73242;BME280;65659;49.234;-2.094;2024-02-04T11:38:00;102002.81;;;13.83;51.01
73242;BME280;65659;49.234;-2.094;2024-02-04T11:40:30;101994.28;;;13.97;50.95
73242;BME280;65659;49.234;-2.094;2024-02-04T11:42:51;102002.32;;;13.94;51.02
73242;BME280;65659;49.234;-2.094;2024-02-04T11:45:16;102008.95;;;14.06;50.79
73242;BME280;65659;49.234;-2.094;2024-02-04T11:47:42;102010.60;;;14.11;50.46
73242;BME280;65659;49.234;-2.094;2024-02-04T11:50:09;102010.46;;;13.83;50.78
73242;BME280;65659;49.234;-2.094;2024-02-04T11:52:33;102007.20;;;13.97;50.91
73242;BME280;65659;49.234;-2.094;2024-02-04T11:54:59;102007.70;;;14.10;50.70
73242;BME280;65659;49.234;-2.094;2024-02-04T11:57:24;102005.45;;;14.05;50.29
73242;BME280;65659;49.234;-2.094;2024-02-04T11:59:51;102002.83;;;13.93;50.51
73242;BME280;65659;49.234;-2.094;2024-02-04T12:02:16;102003.63;;;14.21;50.37
73242;BME280;65659;49.234;-2.094;2024-02-04T12:04:40;102008.10;;;13.84;50.51
73242;BME280;65659;49.234;-2.094;2024-02-04T12:07:05;102007.81;;;14.01;50.24
73242;BME280;65659;49.234;-2.094;2024-02-04T12:09:31;102002.56;;;13.87;50.34
73242;BME280;65659;49.234;-2.094;2024-02-04T12:11:56;102008.22;;;13.92;50.64
73242;BME280;65659;49.234;-2.094;2024-02-04T12:14:22;102005.49;;;13.97;50.89
73242;BME280;65659;49.234;-2.094;2024-02-04T12:16:47;102001.02;;;13.68;51.44
73242;BME280;65659;49.234;-2.094;2024-02-04T12:19:12;102005.70;;;13.88;51.10
73242;BME280;65659;49.234;-2.094;2024-02-04T12:21:39;102003.31;;;13.57;51.67
73242;BME280;65659;49.234;-2.094;2024-02-04T12:24:04;102008.60;;;13.52;51.80
73242;BME280;65659;49.234;-2.094;2024-02-04T12:26:29;102004.77;;;13.98;51.79
73242;BME280;65659;49.234;-2.094;2024-02-04T12:28:54;101994.96;;;13.98;51.60
73242;BME280;65659;49.234;-2.094;2024-02-04T12:31:21;101998.17;;;13.90;51.81